Time;durP1;ratioP1;P1;durP2;ratioP2;P2;SDS_P1;SDS_P2;PMS_P1;PMS_P2;Temp;Humidity;BMP_temperature;BMP_pressure;BME280_temperature;BME280_humidity;BME280_pressure;Samples;Min_cycle;Max_cycle;Signal;HPM_P1;HPM_P2
2021/01/23 00:00:04;;;;;;;1.93;0.33;;;;;;;5.45;79.32;97959.38;5017987;28;20569;-73
2021/01/23 00:02:38;;;;;;;0.83;0.40;;;;;;;5.45;79.38;97951.38;5017828;28;20233;-73
2021/01/23 00:05:06;;;;;;;0.30;0.30;;;;;;;5.35;77.38;97956.72;5021876;28;20203;-73
2021/01/23 00:07:34;;;;;;;0.20;0.20;;;;;;;5.38;77.72;97952.94;5020726;28;20209;-73
2021/01/23 00:10:03;;;;;;;0.27;0.27;;;;;;;5.41;78.06;97968.63;5016763;28;20203;-73
2021/01/23 00:12:30;;;;;;;0.10;0.10;;;;;;;5.52;78.30;97966.69;5021840;28;20256;-73
2021/01/23 00:14:58;;;;;;;0.43;0.33;;;;;;;5.56;78.57;97969.91;5018926;28;20215;-73
2021/01/23 00:17:25;;;;;;;0.10;0.10;;;;;;;5.65;80.16;97974.38;5017800;28;20221;-73
2021/01/23 00:19:52;;;;;;;0.43;0.43;;;;;;;5.52;78.50;97974.66;5019331;28;20290;-73
2021/01/23 00:22:19;;;;;;;4.53;3.07;;;;;;;5.58;79.06;97978.56;5016946;28;20205;-73
2021/01/23 00:24:46;;;;;;;1.10;1.03;;;;;;;5.58;78.97;97973.25;5017132;28;20223;-73
2021/01/23 00:27:14;;;;;;;2.83;1.30;;;;;;;5.57;78.06;97982.22;5017784;28;20787;-73
2021/01/23 00:29:41;;;;;;;1.43;1.10;;;;;;;5.72;79.21;97985.28;5020236;28;20874;-73
2021/01/23 00:32:09;;;;;;;0.80;0.80;;;;;;;5.69;79.91;97985.56;5022450;28;20216;-73
2021/01/23 00:34:36;;;;;;;1.10;1.10;;;;;;;5.58;79.02;97974.09;5014328;28;20206;-73
2021/01/23 00:37:03;;;;;;;1.17;0.77;;;;;;;5.65;79.46;97961.06;5016091;28;21073;-73
2021/01/23 00:39:30;;;;;;;0.77;0.77;;;;;;;5.69;79.33;97991.72;5019814;28;20717;-73
2021/01/23 00:41:58;;;;;;;0.77;0.60;;;;;;;5.64;77.51;97998.47;5022960;28;20291;-73
2021/01/23 00:44:26;;;;;;;1.90;1.80;;;;;;;5.73;78.70;97993.13;5023581;28;20231;-73
2021/01/23 00:46:55;;;;;;;0.83;0.83;;;;;;;5.72;77.83;98001.25;5017747;28;20213;-72
2021/01/23 00:49:23;;;;;;;0.97;0.70;;;;;;;5.64;77.85;98009.09;5018171;28;20228;-73
2021/01/23 00:51:51;;;;;;;0.70;0.70;;;;;;;5.46;77.63;97963.72;5019893;28;20205;-73
2021/01/23 00:54:18;;;;;;;0.60;0.60;;;;;;;5.66;77.63;98000.00;5021119;28;20209;-73
2021/01/23 00:56:46;;;;;;;0.97;0.97;;;;;;;5.56;77.24;97991.19;5015552;28;20717;-73
2021/01/23 00:59:13;;;;;;;0.30;0.30;;;;;;;5.58;76.67;98010.50;5023104;28;20248;-73
2021/01/23 01:01:41;;;;;;;0.47;0.47;;;;;;;5.63;77.67;98013.59;5021398;28;20199;-73
2021/01/23 01:04:21;;;;;;;0.40;0.40;;;;;;;5.79;78.70;98021.84;5031359;28;20628;-73
2021/01/23 01:06:49;;;;;;;0.10;0.10;;;;;;;5.69;77.80;98018.34;5015829;28;20312;-73
2021/01/23 01:09:16;;;;;;;0.33;0.33;;;;;;;5.58;78.25;98014.03;5015828;28;20691;-73
2021/01/23 01:11:43;;;;;;;0.53;0.30;;;;;;;5.68;77.93;98027.31;5020524;28;20700;-73
2021/01/23 01:14:10;;;;;;;3.60;0.30;;;;;;;5.54;77.58;98031.25;5019289;28;20215;-73
2021/01/23 01:16:37;;;;;;;0.30;0.20;;;;;;;5.64;78.35;98044.56;5024321;28;20207;-73
2021/01/23 01:19:05;;;;;;;1.30;0.47;;;;;;;5.57;78.01;98041.63;5027345;28;20206;-73
2021/01/23 01:21:33;;;;;;;0.20;0.20;;;;;;;5.54;77.53;98046.38;5022818;28;20209;-73
2021/01/23 01:24:00;;;;;;;0.27;0.27;;;;;;;5.39;78.51;98014.00;5031674;28;20224;-73
2021/01/23 01:26:27;;;;;;;0.60;0.30;;;;;;;5.68;79.87;98051.28;5019900;28;20205;-73
2021/01/23 01:28:54;;;;;;;0.57;0.40;;;;;;;5.62;79.67;98054.50;5021976;28;20210;-73
2021/01/23 01:31:21;;;;;;;1.80;0.47;;;;;;;5.58;78.62;98056.59;5021760;28;20209;-73
2021/01/23 01:33:49;;;;;;;0.90;0.40;;;;;;;5.58;78.89;98066.41;5021321;28;20199;-73
2021/01/23 01:36:17;;;;;;;0.43;0.33;;;;;;;5.54;78.69;98062.34;5022868;28;20244;-73
2021/01/23 01:38:44;;;;;;;0.30;0.30;;;;;;;5.45;79.25;98042.72;5025049;28;20215;-73
2021/01/23 01:41:11;;;;;;;0.87;0.40;;;;;;;5.56;79.43;98077.19;5020492;28;20632;-73
2021/01/23 01:43:38;;;;;;;0.27;0.27;;;;;;;5.60;80.29;98077.75;5021526;28;20227;-73
2021/01/23 01:46:08;;;;;;;1.50;0.30;;;;;;;5.49;79.68;98085.84;5017258;28;20207;-73
2021/01/23 01:48:35;;;;;;;0.20;0.20;;;;;;;5.50;79.20;98103.50;5019035;28;20686;-73
2021/01/23 01:51:03;;;;;;;0.37;0.37;;;;;;;5.56;79.43;98100.31;5021359;28;20207;-73
2021/01/23 01:53:31;;;;;;;1.17;0.43;;;;;;;5.50;79.23;98099.03;5022863;28;20197;-73
2021/01/23 01:55:59;;;;;;;0.87;0.50;;;;;;;5.60;81.58;98104.38;5018020;28;20577;-73
2021/01/23 01:58:26;;;;;;;1.73;0.40;;;;;;;5.50;79.43;98115.00;5022504;28;20209;-73
2021/01/23 02:00:53;;;;;;;1.80;1.03;;;;;;;5.55;79.79;98112.78;5021733;28;20737;-73
2021/01/23 02:03:39;;;;;;;1.80;0.50;;;;;;;5.57;79.80;98117.97;5021347;28;20246;-73
2021/01/23 02:06:28;;;;;;;1.00;0.30;;;;;;;5.58;79.00;98128.47;5019804;28;20207;-73
2021/01/23 02:09:05;;;;;;;0.47;0.30;;;;;;;5.54;78.77;98140.38;5022194;28;20207;-73
2021/01/23 02:11:41;;;;;;;1236.50;486.07;;;;;;;5.59;78.06;98130.16;5020415;28;20209;-73
2021/01/23 02:14:19;;;;;;;26.23;9.93;;;;;;;5.61;79.83;98138.00;5022195;28;20256;-73
2021/01/23 02:16:49;;;;;;;6.93;3.17;;;;;;;5.54;79.69;98131.56;5025544;28;20207;-73
2021/01/23 02:19:32;;;;;;;0.77;0.77;;;;;;;5.63;78.16;98146.69;5016430;28;20280;-73
2021/01/23 02:22:17;;;;;;;0.63;0.63;;;;;;;5.62;78.78;98139.69;5015015;28;20600;-73
2021/01/23 02:24:48;;;;;;;0.60;0.57;;;;;;;5.79;79.38;98162.97;5019560;28;20624;-73
2021/01/23 02:27:30;;;;;;;0.87;0.83;;;;;;;5.69;80.11;98130.16;5012679;28;20637;-73
2021/01/23 02:30:11;;;;;;;1.13;0.67;;;;;;;5.96;80.66;98161.50;5016426;28;20633;-73
2021/01/23 02:32:41;;;;;;;0.80;0.80;;;;;;;6.01;80.52;98182.38;5021059;28;20210;-73
2021/01/23 02:35:10;;;;;;;1.50;0.97;;;;;;;5.99;80.25;98192.31;5017396;28;20200;-73
2021/01/23 02:37:39;;;;;;;2.00;0.80;;;;;;;6.05;81.22;98178.44;5020152;28;20251;-73
2021/01/23 02:40:08;;;;;;;1.50;0.90;;;;;;;6.06;80.77;98185.47;5018576;28;20539;-73
2021/01/23 02:42:35;;;;;;;1.30;1.20;;;;;;;6.03;80.26;98193.72;5015808;28;20695;-73
2021/01/23 02:45:04;;;;;;;5.83;1.10;;;;;;;6.05;80.15;98210.41;5022737;28;20591;-73
2021/01/23 02:47:31;;;;;;;0.90;0.80;;;;;;;5.96;78.50;98198.78;5021842;28;20215;-73
2021/01/23 02:50:00;;;;;;;1.37;0.60;;;;;;;6.07;79.55;98203.13;5023259;28;20237;-73
2021/01/23 02:52:37;;;;;;;0.80;0.57;;;;;;;6.02;79.68;98205.38;5019695;28;20257;-73
2021/01/23 02:55:07;;;;;;;3.50;0.70;;;;;;;6.02;79.30;98200.03;5025405;28;20209;-73
2021/01/23 02:57:37;;;;;;;1.13;0.50;;;;;;;5.93;78.31;98222.19;5012531;28;20795;-73
2021/01/23 03:00:08;;;;;;;0.57;0.37;;;;;;;5.80;78.17;98195.75;5024782;28;20588;-73
2021/01/23 03:02:37;;;;;;;0.50;0.50;;;;;;;5.85;78.34;98226.34;5033679;28;20247;-73
2021/01/23 03:05:08;;;;;;;0.77;0.53;;;;;;;5.93;79.50;98227.50;5018453;28;20727;-74
2021/01/23 03:07:35;;;;;;;0.30;0.30;;;;;;;5.86;78.61;98240.50;5020840;28;20195;-74
2021/01/23 03:10:07;;;;;;;4.90;0.37;;;;;;;5.87;78.70;98245.69;5020987;28;20733;-74
2021/01/23 03:12:34;;;;;;;0.50;0.50;;;;;;;6.00;79.97;98237.47;5013188;28;20538;-74
2021/01/23 03:15:03;;;;;;;0.53;0.30;;;;;;;5.97;80.25;98247.56;5021488;28;20204;-74
2021/01/23 03:17:30;;;;;;;1.33;0.70;;;;;;;5.93;79.91;98259.47;5023267;28;20682;-73
2021/01/23 03:19:58;;;;;;;4.97;0.80;;;;;;;5.83;79.48;98262.09;5020188;28;20277;-74
2021/01/23 03:22:25;;;;;;;1.00;0.47;;;;;;;5.80;79.00;98265.00;5018531;28;20207;-73
2021/01/23 03:24:53;;;;;;;1.13;0.40;;;;;;;5.84;79.30;98272.59;5020331;28;20456;-74
2021/01/23 03:27:20;;;;;;;0.87;0.40;;;;;;;5.86;79.95;98269.81;5014917;28;20207;-74
2021/01/23 03:29:47;;;;;;;4.17;0.60;;;;;;;5.82;79.77;98287.88;5020936;28;20213;-73
2021/01/23 03:32:14;;;;;;;2.07;0.60;;;;;;;5.86;79.79;98286.63;5014212;28;20216;-74
2021/01/23 03:34:42;;;;;;;1.27;0.57;;;;;;;5.89;80.14;98291.72;5023370;28;20689;-74
2021/01/23 03:37:09;;;;;;;1.70;0.50;;;;;;;5.76;79.48;98288.38;5023351;28;20588;-73
2021/01/23 03:39:37;;;;;;;0.60;0.60;;;;;;;5.76;78.67;98290.22;5023274;28;20204;-74
2021/01/23 03:42:04;;;;;;;6.20;1.20;;;;;;;5.79;80.20;98296.09;5015525;28;20199;-73
2021/01/23 03:44:31;;;;;;;2.90;0.80;;;;;;;5.80;80.83;98288.97;5023333;28;20611;-73
2021/01/23 03:46:58;;;;;;;0.70;0.70;;;;;;;5.84;79.99;98314.38;5023535;28;20203;-73
2021/01/23 03:49:26;;;;;;;3.57;0.80;;;;;;;5.86;80.79;98321.25;5012821;28;20281;-74
2021/01/23 03:51:53;;;;;;;4.27;0.83;;;;;;;5.79;79.69;98325.41;5014444;28;20253;-73
2021/01/23 03:54:20;;;;;;;3.30;0.57;;;;;;;5.73;78.88;98328.59;5021949;28;20199;-73
2021/01/23 03:56:48;;;;;;;4.93;0.53;;;;;;;5.74;79.74;98326.78;5018802;28;20606;-74
2021/01/23 03:59:15;;;;;;;5.77;1.07;;;;;;;5.74;79.39;98340.09;5022319;28;20202;-73
2021/01/23 04:01:43;;;;;;;19.10;8.83;;;;;;;5.83;79.63;98353.47;5012838;28;20213;-74
2021/01/23 04:04:10;;;;;;;6.03;2.23;;;;;;;5.75;79.50;98361.25;5020554;28;20224;-73
2021/01/23 04:06:38;;;;;;;6.13;5.13;;;;;;;5.79;79.73;98360.00;5016284;28;20199;-73
2021/01/23 04:09:05;;;;;;;1.33;0.93;;;;;;;5.68;78.80;98365.44;5018765;28;20703;-74
2021/01/23 04:11:32;;;;;;;2.67;1.40;;;;;;;5.89;80.39;98384.06;5022259;28;20577;-73
2021/01/23 04:14:00;;;;;;;5.00;1.20;;;;;;;5.92;80.29;98386.47;5021218;28;20570;-73
2021/01/23 04:16:27;;;;;;;3.70;1.23;;;;;;;5.89;79.71;98387.59;5015073;28;20215;-73
2021/01/23 04:18:54;;;;;;;1.10;1.00;;;;;;;5.90;80.10;98381.28;5020763;28;20258;-74
2021/01/23 04:21:22;;;;;;;1.50;1.10;;;;;;;5.91;79.35;98392.78;5015777;28;21066;-73
2021/01/23 04:23:49;;;;;;;8.00;1.17;;;;;;;5.88;79.39;98385.88;5016265;28;20222;-72
2021/01/23 04:26:16;;;;;;;1.47;1.20;;;;;;;5.95;79.88;98383.53;5016750;28;20208;-72
2021/01/23 04:28:43;;;;;;;1.20;0.90;;;;;;;5.97;79.43;98392.25;5023973;28;20451;-72
2021/01/23 04:31:11;;;;;;;4.77;1.30;;;;;;;5.91;78.93;98401.63;5015271;28;20233;-72
2021/01/23 04:33:40;;;;;;;1.40;1.00;;;;;;;5.98;79.13;98387.75;5015750;28;20202;-73
2021/01/23 04:36:08;;;;;;;6.30;1.20;;;;;;;5.99;79.05;98400.94;5013306;28;20250;-73
2021/01/23 04:38:35;;;;;;;0.67;0.60;;;;;;;5.87;77.52;98394.00;5016623;28;20208;-72
2021/01/23 04:41:03;;;;;;;1.47;0.90;;;;;;;6.01;79.66;98406.97;5027547;28;20355;-73
2021/01/23 04:43:30;;;;;;;3.47;1.13;;;;;;;6.01;79.20;98412.31;5018329;28;20627;-73
2021/01/23 04:45:57;;;;;;;5.27;1.37;;;;;;;5.97;77.89;98404.72;5027817;28;20215;-73
2021/01/23 04:48:26;;;;;;;2.27;1.10;;;;;;;5.79;80.04;98381.31;5024441;28;20205;-72
2021/01/23 04:50:53;;;;;;;2.33;1.00;;;;;;;5.88;78.96;98414.31;5023082;28;20201;-72
2021/01/23 04:53:20;;;;;;;0.87;0.70;;;;;;;5.97;78.93;98426.03;5025207;28;20235;-73
2021/01/23 04:55:47;;;;;;;2.37;0.80;;;;;;;5.97;78.19;98426.03;5017965;28;20214;-72
2021/01/23 04:58:14;;;;;;;4.90;1.07;;;;;;;5.91;78.51;98433.56;5024869;28;20518;-72
2021/01/23 05:00:42;;;;;;;6.00;1.00;;;;;;;5.93;79.69;98424.59;5021617;28;20684;-72
2021/01/23 05:03:09;;;;;;;6.67;1.10;;;;;;;5.94;78.82;98429.81;5011998;28;20213;-72
2021/01/23 05:05:38;;;;;;;2.47;0.63;;;;;;;5.86;80.10;98418.94;5021665;28;20216;-73
2021/01/23 05:08:07;;;;;;;3.30;0.90;;;;;;;5.88;79.33;98440.97;5024452;28;20204;-72
2021/01/23 05:10:35;;;;;;;5.27;1.57;;;;;;;5.84;78.92;98434.22;5020706;28;20206;-72
2021/01/23 05:13:14;;;;;;;4.37;1.10;;;;;;;5.84;78.00;98437.72;5020080;28;20200;-73
2021/01/23 05:15:43;;;;;;;4.00;0.73;;;;;;;5.89;79.89;98446.19;5019296;28;20199;-73
2021/01/23 05:18:11;;;;;;;2.00;1.07;;;;;;;5.91;79.14;98433.56;5022620;28;20280;-73
2021/01/23 05:20:40;;;;;;;4.10;0.97;;;;;;;5.96;80.34;98448.31;5017477;28;20203;-73
2021/01/23 05:23:10;;;;;;;3.73;0.80;;;;;;;5.74;79.61;98431.47;5019565;28;20230;-72
2021/01/23 05:25:39;;;;;;;3.03;1.17;;;;;;;5.81;78.88;98461.91;5026079;28;20250;-72
2021/01/23 05:28:09;;;;;;;2.20;0.90;;;;;;;5.77;79.66;98464.97;5023232;28;20198;-71
2021/01/23 05:30:45;;;;;;;1.43;0.83;;;;;;;5.76;78.08;98476.59;5027449;28;20648;-73
2021/01/23 05:33:14;;;;;;;1.60;0.50;;;;;;;5.77;78.84;98483.63;5022921;28;20202;-73
2021/01/23 05:35:44;;;;;;;6.10;1.10;;;;;;;5.84;79.83;98492.78;5023518;28;20259;-73
2021/01/23 05:38:19;;;;;;;3.53;0.90;;;;;;;5.61;76.75;98502.72;5023930;28;20203;-73
2021/01/23 05:40:47;;;;;;;5.47;1.20;;;;;;;5.66;79.04;98497.84;5023969;28;20734;-73
2021/01/23 05:43:28;;;;;;;2.27;0.77;;;;;;;5.66;77.24;98511.16;5022525;28;20610;-73
2021/01/23 05:45:55;;;;;;;3.47;0.70;;;;;;;5.65;77.03;98517.47;5023469;28;20209;-73
2021/01/23 05:48:23;;;;;;;2.17;0.90;;;;;;;5.77;79.59;98516.41;5028994;28;20212;-73
2021/01/23 05:50:52;;;;;;;6.77;0.80;;;;;;;5.72;79.25;98518.63;5025777;28;20282;-73
2021/01/23 05:53:19;;;;;;;1.17;0.80;;;;;;;5.67;78.53;98535.97;5027228;28;20203;-73
2021/01/23 05:55:46;;;;;;;13.63;11.70;;;;;;;5.72;79.93;98539.09;5027460;28;20207;-73
2021/01/23 05:58:14;;;;;;;96.87;36.47;;;;;;;5.69;79.96;98529.53;5020160;28;20205;-73
2021/01/23 06:00:42;;;;;;;28.00;10.03;;;;;;;5.73;80.24;98551.41;5023203;28;20221;-73
2021/01/23 06:03:11;;;;;;;5.97;2.43;;;;;;;5.73;79.86;98551.41;5024117;28;20572;-73
2021/01/23 06:05:38;;;;;;;2.80;1.60;;;;;;;5.63;78.83;98548.69;5018764;28;20237;-73
2021/01/23 06:08:07;;;;;;;6.53;1.20;;;;;;;5.73;78.52;98562.06;5022900;28;20207;-73
2021/01/23 06:10:44;;;;;;;3.33;1.00;;;;;;;5.77;79.02;98559.03;5017661;28;20545;-73
2021/01/23 06:13:37;;;;;;;7.90;1.30;;;;;;;5.68;77.36;98564.28;5019230;28;20212;-73
2021/01/23 06:16:06;;;;;;;2.67;1.20;;;;;;;5.63;77.41;98559.34;5019696;28;20200;-73
2021/01/23 06:18:34;;;;;;;6.03;1.07;;;;;;;5.64;77.47;98565.50;5016777;28;20218;-73
2021/01/23 06:21:02;;;;;;;4.23;1.50;;;;;;;5.61;78.38;98563.94;5020479;28;20208;-73
2021/01/23 06:23:50;;;;;;;8.23;3.83;;;;;;;5.57;78.24;98574.00;5024016;28;20206;-73
2021/01/23 06:26:19;;;;;;;7.00;1.10;;;;;;;5.50;77.78;98585.25;5013425;28;20208;-73
2021/01/23 06:28:56;;;;;;;2.93;1.33;;;;;;;5.39;76.70;98583.47;5022124;28;20285;-72
2021/01/23 06:31:31;;;;;;;5.47;1.10;;;;;;;5.25;76.05;98557.16;5021910;28;20652;-73
2021/01/23 06:33:59;;;;;;;8.40;1.83;;;;;;;5.39;78.26;98595.94;5020338;28;20209;-73
2021/01/23 06:36:28;;;;;;;3.07;1.03;;;;;;;5.35;78.91;98610.47;5019078;28;20251;-73
2021/01/23 06:39:08;;;;;;;5.67;1.30;;;;;;;5.35;78.71;98621.13;5021239;28;20679;-73
2021/01/23 06:41:36;;;;;;;7.13;3.40;;;;;;;5.29;79.36;98617.13;5026050;28;20290;-73
2021/01/23 06:44:12;;;;;;;7.97;1.43;;;;;;;5.33;77.81;98625.72;5025078;28;20217;-73
2021/01/23 06:46:41;;;;;;;2.37;0.97;;;;;;;5.35;78.28;98631.75;5017037;28;20299;-73
2021/01/23 06:49:10;;;;;;;6.20;1.10;;;;;;;5.45;80.42;98643.34;5018887;28;20233;-73
2021/01/23 06:51:39;;;;;;;0.40;0.40;;;;;;;5.41;79.98;98644.56;5025492;28;20481;-73
2021/01/23 06:54:15;;;;;;;2.67;0.60;;;;;;;5.13;78.47;98622.81;5017939;28;20202;-73
2021/01/23 06:56:43;;;;;;;4.33;0.90;;;;;;;5.26;77.74;98660.81;5033422;28;20212;-73
2021/01/23 06:59:25;;;;;;;4.53;0.73;;;;;;;5.25;76.85;98676.91;5024079;28;20582;-72
2021/01/23 07:01:59;;;;;;;3.87;1.33;;;;;;;5.01;77.94;98645.09;5020415;28;20204;-73
2021/01/23 07:04:27;;;;;;;3.20;1.07;;;;;;;5.34;78.30;98668.16;5024048;28;20226;-72
2021/01/23 07:06:55;;;;;;;2.60;0.70;;;;;;;5.37;77.46;98685.72;5021580;28;20208;-73
2021/01/23 07:09:47;;;;;;;6.03;0.63;;;;;;;5.37;77.10;98701.69;5020977;28;20577;-73
2021/01/23 07:12:34;;;;;;;4.27;0.73;;;;;;;5.28;76.10;98706.75;5015998;28;20905;-73
2021/01/23 07:15:02;;;;;;;7.33;1.10;;;;;;;5.30;76.17;98707.50;5020521;28;20224;-73
2021/01/23 07:17:34;;;;;;;5.73;1.43;;;;;;;5.25;75.50;98716.81;5015555;28;20206;-73
2021/01/23 07:20:06;;;;;;;5.03;1.27;;;;;;;5.33;76.28;98705.56;5022388;28;20264;-73
2021/01/23 07:22:35;;;;;;;7.13;1.30;;;;;;;5.49;77.86;98722.81;5017634;28;20213;-73
2021/01/23 07:25:06;;;;;;;2.67;0.60;;;;;;;5.54;78.54;98725.16;5018749;28;20326;-73
2021/01/23 07:27:35;;;;;;;3.20;0.80;;;;;;;5.62;79.30;98730.69;5018662;28;20240;-73
2021/01/23 07:30:10;;;;;;;4.63;0.90;;;;;;;5.48;77.34;98729.13;5024397;28;20206;-73
2021/01/23 07:32:37;;;;;;;2.27;0.40;;;;;;;5.50;78.09;98737.81;5019668;28;20208;-74
2021/01/23 07:35:06;;;;;;;3.87;0.77;;;;;;;5.43;77.01;98727.78;5010955;28;20207;-74
2021/01/23 07:37:41;;;;;;;4.40;0.43;;;;;;;5.53;77.52;98747.41;5017064;28;20649;-73
2021/01/23 07:40:11;;;;;;;2.80;0.53;;;;;;;5.45;76.14;98734.69;5023983;28;20976;-74
2021/01/23 07:42:41;;;;;;;9.37;1.23;;;;;;;5.38;75.54;98738.81;5023979;28;20201;-73
2021/01/23 07:45:09;;;;;;;3.83;1.10;;;;;;;5.35;76.31;98741.72;5020083;28;20311;-73
2021/01/23 07:47:38;;;;;;;4.70;0.67;;;;;;;5.43;78.32;98746.44;5024439;28;20318;-73
2021/01/23 07:50:07;;;;;;;5.67;0.70;;;;;;;5.39;78.15;98745.81;5013951;28;20278;-73
2021/01/23 07:52:35;;;;;;;2.03;1.10;;;;;;;5.30;77.76;98752.72;5013408;28;20222;-73
2021/01/23 07:55:03;;;;;;;1999.90;820.57;;;;;;;5.34;78.29;98766.63;5014943;28;20200;-74
2021/01/23 07:57:31;;;;;;;80.27;32.43;;;;;;;5.31;78.81;98766.88;5014013;28;20206;-73
2021/01/23 07:59:58;;;;;;;10.93;3.47;;;;;;;5.03;78.30;98728.28;5012203;28;20216;-73
2021/01/23 08:02:26;;;;;;;9.10;3.60;;;;;;;5.41;78.89;98772.31;5010145;28;20579;-73
2021/01/23 08:04:55;;;;;;;8.33;3.20;;;;;;;5.45;78.59;98782.59;5013028;28;20231;-73
2021/01/23 08:07:27;;;;;;;2.37;1.37;;;;;;;5.45;77.22;98768.44;5013307;28;20195;-73
2021/01/23 08:10:18;;;;;;;4.23;1.57;;;;;;;5.45;79.47;98766.63;5018108;28;20201;-73
2021/01/23 08:12:57;;;;;;;2.07;0.80;;;;;;;5.48;77.26;98765.53;5014952;28;20228;-73
2021/01/23 08:15:27;;;;;;;4.77;1.00;;;;;;;5.56;77.01;98795.94;5008968;28;20691;-73
2021/01/23 08:17:56;;;;;;;4.53;1.70;;;;;;;5.52;77.91;98785.66;5025514;28;20207;-73
2021/01/23 08:20:31;;;;;;;7.10;1.77;;;;;;;5.60;77.18;98812.50;5016640;28;20297;-73
2021/01/23 08:23:07;;;;;;;1.13;1.00;;;;;;;5.64;76.77;98810.44;5013768;28;20553;-73
2021/01/23 08:25:37;;;;;;;6.47;2.53;;;;;;;5.53;75.49;98824.63;5021652;28;20243;-73
2021/01/23 08:28:07;;;;;;;2.30;1.13;;;;;;;5.64;77.77;98827.28;5012793;28;20193;-74
2021/01/23 08:30:35;;;;;;;4.50;1.30;;;;;;;5.65;77.47;98833.44;5012588;28;20221;-74
2021/01/23 08:33:04;;;;;;;4.50;2.60;;;;;;;5.53;74.97;98844.09;5012416;28;20615;-73
2021/01/23 08:35:34;;;;;;;2.67;1.10;;;;;;;5.71;76.82;98846.28;5021473;28;20588;-73
2021/01/23 08:38:02;;;;;;;1.60;1.50;;;;;;;5.82;77.81;98844.47;5016960;28;20622;-73
2021/01/23 08:40:29;;;;;;;2.67;1.10;;;;;;;5.88;77.15;98845.81;5021736;28;20638;-74
2021/01/23 08:42:56;;;;;;;2.63;1.17;;;;;;;5.79;76.60;98849.16;5021822;28;20193;-73
2021/01/23 08:45:25;;;;;;;4.33;0.60;;;;;;;5.80;75.49;98856.19;5016562;28;20230;-73
2021/01/23 08:47:52;;;;;;;5.80;0.80;;;;;;;5.78;76.44;98848.31;5019409;28;20236;-73
2021/01/23 08:50:20;;;;;;;4.50;0.77;;;;;;;5.69;75.84;98832.22;5015610;28;20589;-73
2021/01/23 08:52:47;;;;;;;5.00;0.77;;;;;;;6.03;77.69;98873.06;5018550;28;20275;-73
2021/01/23 08:55:15;;;;;;;2.77;0.87;;;;;;;5.92;74.24;98871.25;5018737;28;20208;-73
2021/01/23 08:57:42;;;;;;;5.10;1.13;;;;;;;6.02;76.85;98879.34;5015623;28;20681;-72
2021/01/23 09:00:13;;;;;;;6.23;1.30;;;;;;;6.05;76.21;98876.44;5016547;28;20566;-72
2021/01/23 09:02:41;;;;;;;2.67;0.90;;;;;;;6.22;77.80;98894.63;5020587;28;20313;-72
2021/01/23 09:05:10;;;;;;;0.70;0.53;;;;;;;6.26;78.07;98884.56;5013811;28;20227;-72
2021/01/23 09:07:39;;;;;;;4.90;1.37;;;;;;;6.23;76.51;98901.66;5014079;28;20287;-72
2021/01/23 09:10:09;;;;;;;0.80;0.60;;;;;;;6.27;77.21;98907.56;5016474;28;20291;-72
2021/01/23 09:12:36;;;;;;;6.43;0.70;;;;;;;6.16;73.87;98916.44;5016329;28;20347;-73
2021/01/23 09:15:05;;;;;;;8.37;0.90;;;;;;;6.22;76.68;98922.13;5020488;28;20204;-72
2021/01/23 09:17:33;;;;;;;3.17;1.20;;;;;;;6.17;76.39;98921.66;5013897;28;20209;-72
2021/01/23 09:20:02;;;;;;;6.20;0.70;;;;;;;6.14;76.36;98935.22;5011204;28;20681;-71
2021/01/23 09:22:30;;;;;;;1.90;0.70;;;;;;;6.15;75.67;98944.91;5017369;28;20209;-71
2021/01/23 09:24:57;;;;;;;7.93;0.90;;;;;;;6.14;73.62;98940.53;5020895;28;20550;-71
2021/01/23 09:27:24;;;;;;;2.33;0.77;;;;;;;6.26;76.62;98946.72;5015512;28;20221;-71
2021/01/23 09:29:51;;;;;;;4.80;1.00;;;;;;;6.26;76.13;98941.38;5022451;28;20213;-73
2021/01/23 09:32:18;;;;;;;9.63;1.40;;;;;;;6.33;76.37;98950.59;5024238;28;20263;-72
2021/01/23 09:34:46;;;;;;;2.17;0.77;;;;;;;6.41;76.99;98952.63;5019775;28;20198;-72
2021/01/23 09:37:14;;;;;;;4.37;0.90;;;;;;;6.35;74.16;98969.97;5022956;28;20237;-72
2021/01/23 09:39:41;;;;;;;3.03;1.30;;;;;;;6.39;74.45;98971.41;5018488;28;20213;-72
2021/01/23 09:42:09;;;;;;;3.43;0.87;;;;;;;6.41;76.05;98984.63;5019835;28;20199;-71
2021/01/23 09:44:36;;;;;;;3.63;1.07;;;;;;;6.37;75.12;98978.69;5030906;28;20213;-72
2021/01/23 09:47:03;;;;;;;8.83;1.40;;;;;;;6.44;76.41;98982.59;5029090;28;20195;-71
2021/01/23 09:49:31;;;;;;;2.40;0.83;;;;;;;6.53;76.20;98995.19;5026465;28;20205;-72
2021/01/23 09:51:58;;;;;;;288.00;147.47;;;;;;;6.53;75.86;98997.84;5021526;28;20202;-72
2021/01/23 09:54:26;;;;;;;74.57;30.07;;;;;;;6.65;77.01;99006.69;5022674;28;20396;-72
2021/01/23 09:57:01;;;;;;;9.47;4.67;;;;;;;6.68;76.81;99009.09;5021469;28;20287;-71
2021/01/23 09:59:29;;;;;;;8.07;2.03;;;;;;;6.69;76.50;99005.47;5019810;28;20288;-71
2021/01/23 10:01:58;;;;;;;3.73;1.27;;;;;;;6.70;76.30;99006.31;5017732;28;20217;-72
2021/01/23 10:04:25;;;;;;;8.37;3.90;;;;;;;6.60;74.10;99000.03;5028272;28;20258;-71
2021/01/23 10:06:53;;;;;;;3.27;1.00;;;;;;;6.64;74.84;99006.81;5027749;28;20302;-71
2021/01/23 10:09:21;;;;;;;1.27;1.00;;;;;;;6.40;74.69;98998.91;5023691;28;20198;-71
2021/01/23 10:11:49;;;;;;;6.00;1.50;;;;;;;6.33;75.17;98973.72;5025332;28;20193;-72
2021/01/23 10:14:16;;;;;;;3.50;1.40;;;;;;;6.64;75.52;99033.47;5021203;28;20278;-71
2021/01/23 10:16:43;;;;;;;8.30;3.97;;;;;;;6.69;75.23;99039.28;5024112;28;20203;-71
2021/01/23 10:19:11;;;;;;;2.50;1.30;;;;;;;6.63;75.30;99037.13;5025614;28;20672;-72
2021/01/23 10:21:38;;;;;;;2.33;1.40;;;;;;;6.65;75.14;99045.84;5021943;28;20211;-72
2021/01/23 10:24:06;;;;;;;3.13;0.90;;;;;;;6.64;74.77;99049.47;5040626;28;20208;-72
2021/01/23 10:26:34;;;;;;;4.57;2.97;;;;;;;6.54;74.30;99023.53;5025409;28;20225;-72
2021/01/23 10:29:02;;;;;;;3.53;1.60;;;;;;;6.56;74.29;99047.41;5023752;28;20284;-72
2021/01/23 10:31:29;;;;;;;3.70;1.40;;;;;;;6.66;74.05;99059.06;5024917;28;20627;-72
2021/01/23 10:33:56;;;;;;;5.80;1.97;;;;;;;6.70;73.77;99057.00;5020368;28;20228;-71
2021/01/23 10:36:24;;;;;;;13.63;7.73;;;;;;;6.66;73.66;99052.88;5017746;28;20657;-72
2021/01/23 10:38:51;;;;;;;5.60;1.47;;;;;;;6.66;73.81;99056.38;5030010;28;20229;-72
2021/01/23 10:41:18;;;;;;;5.20;2.23;;;;;;;6.70;74.50;99057.84;5024161;28;20287;-71
2021/01/23 10:43:46;;;;;;;3.70;1.47;;;;;;;6.69;74.59;99060.63;5023412;28;20666;-71
2021/01/23 10:46:14;;;;;;;8.40;3.90;;;;;;;6.71;74.22;99064.88;5016921;28;20228;-71
2021/01/23 10:48:42;;;;;;;3.03;1.67;;;;;;;6.66;73.53;99060.88;5010991;28;20194;-71
2021/01/23 10:51:10;;;;;;;3.77;0.90;;;;;;;6.62;72.73;99068.28;5016872;28;20205;-71
2021/01/23 10:53:37;;;;;;;6.37;1.73;;;;;;;6.57;73.51;99072.28;5008641;28;20604;-71
2021/01/23 10:56:04;;;;;;;5.07;1.33;;;;;;;6.52;73.61;99072.63;5020506;28;20202;-72
2021/01/23 10:58:32;;;;;;;4.03;1.30;;;;;;;6.31;72.49;99051.16;5024018;28;20653;-72
2021/01/23 11:00:59;;;;;;;9.53;1.17;;;;;;;6.47;74.74;99072.16;5020868;28;20194;-72
2021/01/23 11:03:29;;;;;;;3.90;1.10;;;;;;;6.35;74.21;99060.59;5016007;28;20229;-72
2021/01/23 11:05:57;;;;;;;4.20;1.17;;;;;;;6.40;76.19;99061.09;5013363;28;20686;-71
2021/01/23 11:08:25;;;;;;;3.93;0.80;;;;;;;6.31;75.53;99055.63;5026015;28;20234;-71
2021/01/23 11:10:53;;;;;;;4.77;1.27;;;;;;;6.30;75.86;99059.25;5019024;28;20206;-71
2021/01/23 11:13:21;;;;;;;10.43;1.17;;;;;;;6.31;76.97;99067.16;5025871;28;20236;-71
2021/01/23 11:15:48;;;;;;;6.77;1.47;;;;;;;6.29;76.15;99061.09;5016876;28;20189;-71
2021/01/23 11:18:15;;;;;;;3.63;1.53;;;;;;;6.28;77.82;99072.72;5031072;28;20228;-72
2021/01/23 11:20:43;;;;;;;1.93;0.90;;;;;;;6.18;76.25;99071.72;5030061;28;20205;-72
2021/01/23 11:23:11;;;;;;;8.30;1.00;;;;;;;6.14;76.47;99067.59;5029284;28;20280;-72
2021/01/23 11:25:38;;;;;;;11.93;2.00;;;;;;;6.26;77.07;99068.47;5026066;28;20663;-72
2021/01/23 11:28:06;;;;;;;2.03;0.83;;;;;;;6.26;77.22;99076.47;5024130;28;20204;-72
2021/01/23 11:30:33;;;;;;;9.00;1.43;;;;;;;6.06;75.99;99060.19;5035374;28;20220;-72
2021/01/23 11:33:00;;;;;;;1.80;0.80;;;;;;;6.24;77.28;99084.59;5023650;28;20191;-72
2021/01/23 11:35:27;;;;;;;5.93;1.27;;;;;;;6.23;77.14;99081.06;5028355;28;20209;-72
2021/01/23 11:37:55;;;;;;;4.07;1.07;;;;;;;6.27;78.32;99084.34;5030318;28;20196;-72
2021/01/23 11:40:22;;;;;;;6.37;1.30;;;;;;;6.26;77.78;99079.13;5024079;28;20214;-72
2021/01/23 11:42:50;;;;;;;3.87;1.03;;;;;;;6.21;77.13;99079.50;5025747;28;20554;-72
2021/01/23 11:45:20;;;;;;;5.93;1.30;;;;;;;6.19;78.31;99086.75;5029999;28;20293;-72
2021/01/23 11:47:48;;;;;;;2.00;1.37;;;;;;;6.16;77.38;99087.84;5025137;28;20220;-72
2021/01/23 11:50:16;;;;;;;9.50;1.90;;;;;;;5.80;76.29;99022.16;5026822;28;20230;-72